sensor_id;sensor_type;location;lat;lon;timestamp;pressure;altitude;pressure_sealevel;temperature;humidity
11936;BME280;6027;48.576;9.180;2023-04-15T00:00:27;95889.06;;;5.31;82.13
11936;BME280;6027;48.576;9.180;2023-04-15T00:02:53;95896.91;;;5.08;83.49
11936;BME280;6027;48.576;9.180;2023-04-15T00:05:19;95888.06;;;5.01;83.94
11936;BME280;6027;48.576;9.180;2023-04-15T00:07:45;95895.31;;;4.99;84.89
11936;BME280;6027;48.576;9.180;2023-04-15T00:10:11;95895.25;;;4.76;87.83
11936;BME280;6027;48.576;9.180;2023-04-15T00:12:37;95897.22;;;4.74;88.39
11936;BME280;6027;48.576;9.180;2023-04-15T00:15:03;95898.03;;;4.74;88.25
11936;BME280;6027;48.576;9.180;2023-04-15T00:17:29;95899.22;;;4.64;88.85
11936;BME280;6027;48.576;9.180;2023-04-15T00:19:54;95894.13;;;4.62;88.96
11936;BME280;6027;48.576;9.180;2023-04-15T00:22:19;95902.31;;;4.67;89.18
11936;BME280;6027;48.576;9.180;2023-04-15T00:24:45;95892.81;;;4.74;88.27
11936;BME280;6027;48.576;9.180;2023-04-15T00:27:11;95900.50;;;4.76;88.50
11936;BME280;6027;48.576;9.180;2023-04-15T00:29:36;95900.34;;;4.77;88.14
11936;BME280;6027;48.576;9.180;2023-04-15T00:32:02;95897.38;;;4.80;87.33
11936;BME280;6027;48.576;9.180;2023-04-15T00:34:27;95895.19;;;4.84;87.28
11936;BME280;6027;48.576;9.180;2023-04-15T00:36:53;95901.31;;;4.76;87.96
11936;BME280;6027;48.576;9.180;2023-04-15T00:39:19;95899.38;;;4.62;88.95
11936;BME280;6027;48.576;9.180;2023-04-15T00:41:45;95894.13;;;4.62;88.93
11936;BME280;6027;48.576;9.180;2023-04-15T00:44:10;95885.66;;;4.60;89.69
11936;BME280;6027;48.576;9.180;2023-04-15T00:46:37;95886.28;;;4.62;89.80
11936;BME280;6027;48.576;9.180;2023-04-15T00:49:04;95890.78;;;4.37;90.87
11936;BME280;6027;48.576;9.180;2023-04-15T00:51:30;95883.44;;;4.25;91.37
11936;BME280;6027;48.576;9.180;2023-04-15T00:53:58;95886.06;;;4.33;91.49
11936;BME280;6027;48.576;9.180;2023-04-15T00:56:25;95885.72;;;4.28;92.61
11936;BME280;6027;48.576;9.180;2023-04-15T00:58:52;95883.28;;;4.26;92.27
11936;BME280;6027;48.576;9.180;2023-04-15T01:01:21;95890.97;;;4.28;92.87
11936;BME280;6027;48.576;9.180;2023-04-15T01:03:49;95898.69;;;4.21;93.51
11936;BME280;6027;48.576;9.180;2023-04-15T01:06:15;95901.97;;;4.15;94.40
11936;BME280;6027;48.576;9.180;2023-04-15T01:08:42;95895.44;;;4.03;95.27
11936;BME280;6027;48.576;9.180;2023-04-15T01:11:08;95896.72;;;4.15;94.53
11936;BME280;6027;48.576;9.180;2023-04-15T01:13:35;95894.94;;;4.07;94.28
11936;BME280;6027;48.576;9.180;2023-04-15T01:16:01;95897.38;;;4.17;93.97
11936;BME280;6027;48.576;9.180;2023-04-15T01:18:28;95891.81;;;4.12;93.77
11936;BME280;6027;48.576;9.180;2023-04-15T01:20:53;95904.59;;;4.07;93.72
11936;BME280;6027;48.576;9.180;2023-04-15T01:23:20;95898.41;;;3.92;94.76
11936;BME280;6027;48.576;9.180;2023-04-15T01:25:48;95905.94;;;3.62;96.59
11936;BME280;6027;48.576;9.180;2023-04-15T01:28:14;95904.78;;;3.57;97.65
11936;BME280;6027;48.576;9.180;2023-04-15T01:30:40;95912.16;;;3.61;97.15
11936;BME280;6027;48.576;9.180;2023-04-15T01:33:06;95900.38;;;3.57;97.93
11936;BME280;6027;48.576;9.180;2023-04-15T01:35:32;95904.44;;;3.52;98.57
11936;BME280;6027;48.576;9.180;2023-04-15T01:38:08;95911.78;;;3.40;99.32
11936;BME280;6027;48.576;9.180;2023-04-15T01:43:02;95903.47;;;3.44;99.24
11936;BME280;6027;48.576;9.180;2023-04-15T01:45:28;95896.59;;;3.43;99.23
11936;BME280;6027;48.576;9.180;2023-04-15T01:47:54;95895.56;;;3.28;100.00
11936;BME280;6027;48.576;9.180;2023-04-15T01:50:20;95895.91;;;3.33;100.00
11936;BME280;6027;48.576;9.180;2023-04-15T01:52:46;95899.97;;;3.28;100.00
11936;BME280;6027;48.576;9.180;2023-04-15T01:55:12;95896.06;;;3.24;100.00
11936;BME280;6027;48.576;9.180;2023-04-15T01:57:38;95894.75;;;3.28;100.00
11936;BME280;6027;48.576;9.180;2023-04-15T02:00:04;95895.56;;;3.20;100.00
11936;BME280;6027;48.576;9.180;2023-04-15T02:02:32;95902.88;;;3.00;100.00
11936;BME280;6027;48.576;9.180;2023-04-15T02:04:57;95891.25;;;2.95;100.00
11936;BME280;6027;48.576;9.180;2023-04-15T02:07:23;95897.78;;;2.91;100.00
11936;BME280;6027;48.576;9.180;2023-04-15T02:09:48;95871.91;;;2.71;100.00
11936;BME280;6027;48.576;9.180;2023-04-15T02:12:14;95896.66;;;2.93;100.00
11936;BME280;6027;48.576;9.180;2023-04-15T02:14:39;95888.81;;;2.93;100.00
11936;BME280;6027;48.576;9.180;2023-04-15T02:17:05;95889.97;;;2.99;100.00
11936;BME280;6027;48.576;9.180;2023-04-15T02:19:34;95884.06;;;2.97;100.00
11936;BME280;6027;48.576;9.180;2023-04-15T02:21:59;95885.25;;;3.02;100.00
11936;BME280;6027;48.576;9.180;2023-04-15T02:24:26;95881.50;;;3.05;100.00
11936;BME280;6027;48.576;9.180;2023-04-15T02:26:52;95889.34;;;3.13;100.00
11936;BME280;6027;48.576;9.180;2023-04-15T02:29:17;95877.09;;;3.13;100.00
11936;BME280;6027;48.576;9.180;2023-04-15T02:31:42;95874.28;;;2.99;100.00
11936;BME280;6027;48.576;9.180;2023-04-15T02:34:09;95871.97;;;2.88;100.00
11936;BME280;6027;48.576;9.180;2023-04-15T02:36:34;95882.75;;;2.93;100.00
11936;BME280;6027;48.576;9.180;2023-04-15T02:39:00;95882.56;;;2.78;100.00
11936;BME280;6027;48.576;9.180;2023-04-15T02:41:25;95886.25;;;2.59;100.00
11936;BME280;6027;48.576;9.180;2023-04-15T02:43:53;95881.22;;;2.74;100.00
11936;BME280;6027;48.576;9.180;2023-04-15T02:46:18;95883.06;;;2.82;100.00
11936;BME280;6027;48.576;9.180;2023-04-15T02:48:44;95879.16;;;2.86;100.00
11936;BME280;6027;48.576;9.180;2023-04-15T02:51:17;95886.19;;;2.85;100.00
11936;BME280;6027;48.576;9.180;2023-04-15T02:53:44;95881.09;;;2.84;100.00
11936;BME280;6027;48.576;9.180;2023-04-15T02:56:10;95877.53;;;2.85;100.00
11936;BME280;6027;48.576;9.180;2023-04-15T02:58:37;95877.28;;;2.70;100.00
11936;BME280;6027;48.576;9.180;2023-04-15T03:01:03;95888.34;;;2.22;100.00
11936;BME280;6027;48.576;9.180;2023-04-15T03:03:29;95890.81;;;2.23;100.00
11936;BME280;6027;48.576;9.180;2023-04-15T03:05:55;95884.22;;;2.11;100.00
11936;BME280;6027;48.576;9.180;2023-04-15T03:08:20;95888.03;;;1.99;100.00
11936;BME280;6027;48.576;9.180;2023-04-15T03:10:46;95891.88;;;2.13;100.00
11936;BME280;6027;48.576;9.180;2023-04-15T03:13:12;95890.91;;;2.14;100.00
11936;BME280;6027;48.576;9.180;2023-04-15T03:15:37;95890.91;;;2.14;100.00
11936;BME280;6027;48.576;9.180;2023-04-15T03:18:03;95890.66;;;2.25;100.00
11936;BME280;6027;48.576;9.180;2023-04-15T03:20:28;95886.25;;;2.25;100.00
11936;BME280;6027;48.576;9.180;2023-04-15T03:22:54;95875.44;;;1.94;100.00
11936;BME280;6027;48.576;9.180;2023-04-15T03:25:19;95880.31;;;1.89;100.00
11936;BME280;6027;48.576;9.180;2023-04-15T03:27:45;95882.13;;;1.89;100.00
11936;BME280;6027;48.576;9.180;2023-04-15T03:30:11;95878.91;;;1.77;100.00
11936;BME280;6027;48.576;9.180;2023-04-15T03:32:37;95884.75;;;1.71;100.00
11936;BME280;6027;48.576;9.180;2023-04-15T03:35:03;95875.22;;;1.62;100.00
11936;BME280;6027;48.576;9.180;2023-04-15T03:37:29;95875.59;;;1.67;100.00
11936;BME280;6027;48.576;9.180;2023-04-15T03:39:54;95874.25;;;1.63;100.00
11936;BME280;6027;48.576;9.180;2023-04-15T03:42:20;95876.56;;;1.66;100.00
11936;BME280;6027;48.576;9.180;2023-04-15T03:44:45;95877.78;;;1.54;100.00
11936;BME280;6027;48.576;9.180;2023-04-15T03:47:11;95880.13;;;1.65;100.00
11936;BME280;6027;48.576;9.180;2023-04-15T03:49:36;95876.59;;;1.74;100.00
11936;BME280;6027;48.576;9.180;2023-04-15T03:52:01;95874.06;;;1.82;100.00
11936;BME280;6027;48.576;9.180;2023-04-15T03:54:27;95879.44;;;1.81;100.00
11936;BME280;6027;48.576;9.180;2023-04-15T03:56:52;95881.44;;;1.87;100.00
11936;BME280;6027;48.576;9.180;2023-04-15T03:59:18;95883.22;;;1.86;100.00
11936;BME280;6027;48.576;9.180;2023-04-15T04:01:43;95876.38;;;1.85;100.00
11936;BME280;6027;48.576;9.180;2023-04-15T04:04:08;95877.19;;;1.86;100.00
11936;BME280;6027;48.576;9.180;2023-04-15T04:06:34;95879.72;;;1.78;100.00
11936;BME280;6027;48.576;9.180;2023-04-15T04:09:00;95884.00;;;1.61;100.00
11936;BME280;6027;48.576;9.180;2023-04-15T04:11:25;95883.03;;;1.62;100.00
11936;BME280;6027;48.576;9.180;2023-04-15T04:13:52;95883.97;;;1.53;100.00
11936;BME280;6027;48.576;9.180;2023-04-15T04:16:18;95857.09;;;1.34;100.00
11936;BME280;6027;48.576;9.180;2023-04-15T04:18:43;95886.06;;;1.49;100.00
11936;BME280;6027;48.576;9.180;2023-04-15T04:21:09;95893.88;;;1.49;100.00
11936;BME280;6027;48.576;9.180;2023-04-15T04:23:34;95898.69;;;1.62;100.00
11936;BME280;6027;48.576;9.180;2023-04-15T04:26:00;95894.56;;;1.77;100.00
11936;BME280;6027;48.576;9.180;2023-04-15T04:28:25;95898.06;;;1.86;100.00
11936;BME280;6027;48.576;9.180;2023-04-15T04:30:51;95893.25;;;1.99;100.00
11936;BME280;6027;48.576;9.180;2023-04-15T04:33:16;95901.91;;;1.99;100.00
11936;BME280;6027;48.576;9.180;2023-04-15T04:35:42;95904.81;;;1.96;100.00
11936;BME280;6027;48.576;9.180;2023-04-15T04:38:07;95906.66;;;1.78;100.00
11936;BME280;6027;48.576;9.180;2023-04-15T04:40:33;95903.03;;;1.97;100.00
11936;BME280;6027;48.576;9.180;2023-04-15T04:42:59;95899.00;;;2.02;100.00
11936;BME280;6027;48.576;9.180;2023-04-15T04:45:24;95902.13;;;2.06;100.00
11936;BME280;6027;48.576;9.180;2023-04-15T04:47:50;95903.91;;;2.05;100.00
11936;BME280;6027;48.576;9.180;2023-04-15T04:50:15;95896.66;;;1.91;100.00
11936;BME280;6027;48.576;9.180;2023-04-15T04:52:41;95909.84;;;1.90;100.00
11936;BME280;6027;48.576;9.180;2023-04-15T04:55:06;95917.19;;;1.68;100.00
11936;BME280;6027;48.576;9.180;2023-04-15T04:57:33;95915.09;;;1.54;100.00
11936;BME280;6027;48.576;9.180;2023-04-15T05:00:01;95914.22;;;1.46;100.00
11936;BME280;6027;48.576;9.180;2023-04-15T05:02:27;95911.63;;;1.28;100.00
11936;BME280;6027;48.576;9.180;2023-04-15T05:04:53;95915.03;;;1.28;100.00
11936;BME280;6027;48.576;9.180;2023-04-15T05:07:19;95910.03;;;1.17;100.00
11936;BME280;6027;48.576;9.180;2023-04-15T05:09:45;95918.00;;;1.16;100.00
11936;BME280;6027;48.576;9.180;2023-04-15T05:12:11;95917.41;;;1.22;100.00
11936;BME280;6027;48.576;9.180;2023-04-15T05:14:39;95907.34;;;1.09;100.00
11936;BME280;6027;48.576;9.180;2023-04-15T05:17:05;95916.66;;;0.94;100.00
11936;BME280;6027;48.576;9.180;2023-04-15T05:21:59;95911.75;;;1.09;100.00
11936;BME280;6027;48.576;9.180;2023-04-15T05:24:25;95913.06;;;0.95;100.00
11936;BME280;6027;48.576;9.180;2023-04-15T05:26:51;95918.56;;;0.92;100.00
11936;BME280;6027;48.576;9.180;2023-04-15T05:29:16;95916.81;;;1.10;100.00
11936;BME280;6027;48.576;9.180;2023-04-15T05:31:42;95920.41;;;1.27;100.00
11936;BME280;6027;48.576;9.180;2023-04-15T05:34:07;95918.03;;;1.33;100.00
11936;BME280;6027;48.576;9.180;2023-04-15T05:36:33;95920.00;;;1.57;100.00
11936;BME280;6027;48.576;9.180;2023-04-15T05:38:58;95914.72;;;1.67;100.00
11936;BME280;6027;48.576;9.180;2023-04-15T05:41:24;95918.81;;;1.69;100.00
11936;BME280;6027;48.576;9.180;2023-04-15T05:43:49;95923.44;;;1.58;100.00
11936;BME280;6027;48.576;9.180;2023-04-15T05:46:14;95921.22;;;1.63;100.00
11936;BME280;6027;48.576;9.180;2023-04-15T05:48:40;95920.09;;;1.48;100.00
11936;BME280;6027;48.576;9.180;2023-04-15T05:51:05;95922.91;;;1.54;100.00
11936;BME280;6027;48.576;9.180;2023-04-15T05:53:31;95921.06;;;1.64;100.00
11936;BME280;6027;48.576;9.180;2023-04-15T05:55:56;95932.81;;;1.86;100.00
11936;BME280;6027;48.576;9.180;2023-04-15T05:58:22;95914.97;;;1.99;100.00
11936;BME280;6027;48.576;9.180;2023-04-15T06:00:47;95928.22;;;2.06;100.00
11936;BME280;6027;48.576;9.180;2023-04-15T06:03:13;95923.25;;;1.95;100.00
11936;BME280;6027;48.576;9.180;2023-04-15T06:05:38;95923.16;;;2.04;100.00
11936;BME280;6027;48.576;9.180;2023-04-15T06:08:05;95920.78;;;2.11;100.00
11936;BME280;6027;48.576;9.180;2023-04-15T06:10:31;95933.31;;;2.07;100.00
11936;BME280;6027;48.576;9.180;2023-04-15T06:13:01;95927.00;;;2.18;100.00
11936;BME280;6027;48.576;9.180;2023-04-15T06:15:27;95928.72;;;2.35;100.00
11936;BME280;6027;48.576;9.180;2023-04-15T06:17:52;95929.16;;;2.23;100.00
11936;BME280;6027;48.576;9.180;2023-04-15T06:20:18;95934.59;;;2.29;100.00
11936;BME280;6027;48.576;9.180;2023-04-15T06:22:43;95936.03;;;2.32;100.00
11936;BME280;6027;48.576;9.180;2023-04-15T06:25:09;95928.88;;;2.34;100.00
11936;BME280;6027;48.576;9.180;2023-04-15T06:27:35;95927.44;;;2.39;100.00
11936;BME280;6027;48.576;9.180;2023-04-15T06:30:00;95936.09;;;2.40;100.00
11936;BME280;6027;48.576;9.180;2023-04-15T06:32:26;95935.44;;;2.38;100.00
11936;BME280;6027;48.576;9.180;2023-04-15T06:34:51;95919.41;;;2.33;100.00
11936;BME280;6027;48.576;9.180;2023-04-15T06:37:16;95928.63;;;2.45;100.00
11936;BME280;6027;48.576;9.180;2023-04-15T06:39:42;95927.69;;;2.54;100.00
11936;BME280;6027;48.576;9.180;2023-04-15T06:42:09;95935.78;;;2.69;100.00
11936;BME280;6027;48.576;9.180;2023-04-15T06:44:35;95934.63;;;2.71;100.00
11936;BME280;6027;48.576;9.180;2023-04-15T06:47:01;95945.13;;;2.80;100.00
11936;BME280;6027;48.576;9.180;2023-04-15T06:49:27;95948.75;;;2.87;100.00
11936;BME280;6027;48.576;9.180;2023-04-15T06:51:52;95942.41;;;2.97;100.00
11936;BME280;6027;48.576;9.180;2023-04-15T06:54:18;95936.06;;;3.00;100.00
11936;BME280;6027;48.576;9.180;2023-04-15T06:56:43;95944.56;;;3.10;100.00
11936;BME280;6027;48.576;9.180;2023-04-15T06:59:09;95945.91;;;3.14;100.00
11936;BME280;6027;48.576;9.180;2023-04-15T07:01:35;95947.25;;;3.26;100.00
11936;BME280;6027;48.576;9.180;2023-04-15T07:04:00;95947.25;;;3.34;100.00
11936;BME280;6027;48.576;9.180;2023-04-15T07:06:26;95943.03;;;3.41;100.00
11936;BME280;6027;48.576;9.180;2023-04-15T07:08:52;95946.16;;;3.45;100.00
11936;BME280;6027;48.576;9.180;2023-04-15T07:11:18;95942.06;;;3.51;100.00
11936;BME280;6027;48.576;9.180;2023-04-15T07:13:45;95936.50;;;3.54;100.00
11936;BME280;6027;48.576;9.180;2023-04-15T07:16:10;95938.47;;;3.68;100.00
11936;BME280;6027;48.576;9.180;2023-04-15T07:18:36;95928.50;;;3.71;100.00
11936;BME280;6027;48.576;9.180;2023-04-15T07:21:01;95929.31;;;3.88;100.00
11936;BME280;6027;48.576;9.180;2023-04-15T07:23:27;95938.31;;;3.94;100.00
11936;BME280;6027;48.576;9.180;2023-04-15T07:25:52;95930.13;;;4.05;100.00
11936;BME280;6027;48.576;9.180;2023-04-15T07:28:17;95930.63;;;4.16;100.00
11936;BME280;6027;48.576;9.180;2023-04-15T07:30:43;95932.22;;;4.34;100.00
11936;BME280;6027;48.576;9.180;2023-04-15T07:33:08;95932.56;;;4.39;100.00
11936;BME280;6027;48.576;9.180;2023-04-15T07:35:34;95929.72;;;4.48;100.00
11936;BME280;6027;48.576;9.180;2023-04-15T07:37:59;95928.59;;;4.51;100.00
11936;BME280;6027;48.576;9.180;2023-04-15T07:40:24;95926.13;;;4.58;100.00
11936;BME280;6027;48.576;9.180;2023-04-15T07:42:50;95916.25;;;4.68;100.00
11936;BME280;6027;48.576;9.180;2023-04-15T07:45:16;95918.31;;;4.89;100.00
11936;BME280;6027;48.576;9.180;2023-04-15T07:47:42;95922.06;;;4.94;100.00
11936;BME280;6027;48.576;9.180;2023-04-15T07:50:08;95923.13;;;5.08;100.00
11936;BME280;6027;48.576;9.180;2023-04-15T07:52:35;95916.47;;;5.28;100.00
11936;BME280;6027;48.576;9.180;2023-04-15T07:55:07;95914.88;;;5.50;100.00
11936;BME280;6027;48.576;9.180;2023-04-15T07:57:33;95915.81;;;5.57;100.00
11936;BME280;6027;48.576;9.180;2023-04-15T07:59:59;95921.75;;;5.74;100.00
11936;BME280;6027;48.576;9.180;2023-04-15T08:02:25;95911.88;;;5.99;100.00
11936;BME280;6027;48.576;9.180;2023-04-15T08:04:50;95915.13;;;6.23;100.00
11936;BME280;6027;48.576;9.180;2023-04-15T08:07:16;95914.31;;;6.38;99.67
11936;BME280;6027;48.576;9.180;2023-04-15T08:09:42;95913.44;;;6.60;97.30
11936;BME280;6027;48.576;9.180;2023-04-15T08:12:07;95912.44;;;6.76;97.94
11936;BME280;6027;48.576;9.180;2023-04-15T08:14:36;95916.72;;;6.91;96.40
11936;BME280;6027;48.576;9.180;2023-04-15T08:17:02;95912.88;;;7.09;94.92
11936;BME280;6027;48.576;9.180;2023-04-15T08:19:29;95905.75;;;7.24;95.61
11936;BME280;6027;48.576;9.180;2023-04-15T08:21:54;95913.25;;;7.42;94.41
11936;BME280;6027;48.576;9.180;2023-04-15T08:24:20;95918.41;;;7.50;91.47
11936;BME280;6027;48.576;9.180;2023-04-15T08:26:46;95916.28;;;7.60;89.34
11936;BME280;6027;48.576;9.180;2023-04-15T08:29:11;95922.69;;;7.72;91.09
11936;BME280;6027;48.576;9.180;2023-04-15T08:31:37;95913.75;;;7.88;87.32
11936;BME280;6027;48.576;9.180;2023-04-15T08:34:02;95903.31;;;8.01;88.56
11936;BME280;6027;48.576;9.180;2023-04-15T08:36:28;95905.09;;;8.22;88.26
11936;BME280;6027;48.576;9.180;2023-04-15T08:38:54;95905.28;;;8.42;86.46
11936;BME280;6027;48.576;9.180;2023-04-15T08:41:21;95915.16;;;8.61;82.79
11936;BME280;6027;48.576;9.180;2023-04-15T08:43:53;95908.53;;;8.78;81.14
11936;BME280;6027;48.576;9.180;2023-04-15T08:46:20;95917.72;;;8.82;83.80
11936;BME280;6027;48.576;9.180;2023-04-15T08:48:47;95910.53;;;9.04;85.35
11936;BME280;6027;48.576;9.180;2023-04-15T08:51:13;95915.06;;;9.23;81.31
11936;BME280;6027;48.576;9.180;2023-04-15T08:53:42;95922.84;;;9.38;82.14
11936;BME280;6027;48.576;9.180;2023-04-15T08:56:08;95917.16;;;9.48;81.01
11936;BME280;6027;48.576;9.180;2023-04-15T09:01:13;95916.59;;;9.65;80.68
11936;BME280;6027;48.576;9.180;2023-04-15T09:03:39;95916.00;;;9.70;81.12
11936;BME280;6027;48.576;9.180;2023-04-15T09:06:05;95918.09;;;9.81;81.11
11936;BME280;6027;48.576;9.180;2023-04-15T09:08:31;95918.28;;;9.93;76.56
11936;BME280;6027;48.576;9.180;2023-04-15T09:10:58;95919.56;;;10.17;78.36
11936;BME280;6027;48.576;9.180;2023-04-15T09:13:24;95922.41;;;10.28;78.05
11936;BME280;6027;48.576;9.180;2023-04-15T09:15:49;95921.78;;;10.39;72.42
11936;BME280;6027;48.576;9.180;2023-04-15T09:20:54;95927.88;;;10.60;72.68
11936;BME280;6027;48.576;9.180;2023-04-15T09:23:19;95928.50;;;10.62;70.25
11936;BME280;6027;48.576;9.180;2023-04-15T09:25:45;95930.75;;;10.71;71.77
11936;BME280;6027;48.576;9.180;2023-04-15T09:28:10;95935.44;;;10.76;69.05
11936;BME280;6027;48.576;9.180;2023-04-15T09:30:36;95932.34;;;10.79;71.53
11936;BME280;6027;48.576;9.180;2023-04-15T09:33:03;95933.78;;;10.82;68.34
11936;BME280;6027;48.576;9.180;2023-04-15T09:35:33;95942.13;;;10.92;69.93
11936;BME280;6027;48.576;9.180;2023-04-15T09:38:02;95935.00;;;10.92;68.52
11936;BME280;6027;48.576;9.180;2023-04-15T09:40:40;95939.44;;;10.98;68.30
11936;BME280;6027;48.576;9.180;2023-04-15T09:43:08;95939.00;;;11.15;65.84
11936;BME280;6027;48.576;9.180;2023-04-15T09:45:37;95936.66;;;11.45;66.38
11936;BME280;6027;48.576;9.180;2023-04-15T09:50:43;95944.94;;;11.61;65.05
11936;BME280;6027;48.576;9.180;2023-04-15T09:53:18;95941.03;;;11.64;62.72
11936;BME280;6027;48.576;9.180;2023-04-15T09:55:49;95936.91;;;11.74;62.80
11936;BME280;6027;48.576;9.180;2023-04-15T09:58:26;95934.44;;;11.86;62.41
11936;BME280;6027;48.576;9.180;2023-04-15T10:00:53;95929.00;;;12.06;63.58
11936;BME280;6027;48.576;9.180;2023-04-15T10:05:47;95930.09;;;12.23;60.25
11936;BME280;6027;48.576;9.180;2023-04-15T10:08:15;95931.38;;;12.14;56.71
11936;BME280;6027;48.576;9.180;2023-04-15T10:10:41;95929.69;;;12.26;59.53
11936;BME280;6027;48.576;9.180;2023-04-15T10:13:07;95924.00;;;12.23;57.54
11936;BME280;6027;48.576;9.180;2023-04-15T10:15:33;95930.84;;;12.05;57.05
11936;BME280;6027;48.576;9.180;2023-04-15T10:18:00;95934.78;;;11.96;57.72
11936;BME280;6027;48.576;9.180;2023-04-15T10:20:27;95935.47;;;11.85;57.80
11936;BME280;6027;48.576;9.180;2023-04-15T10:22:53;95933.84;;;11.77;56.83
11936;BME280;6027;48.576;9.180;2023-04-15T10:25:20;95944.22;;;11.86;56.72
11936;BME280;6027;48.576;9.180;2023-04-15T10:27:45;95943.44;;;11.79;56.32
11936;BME280;6027;48.576;9.180;2023-04-15T10:30:12;95943.91;;;11.62;55.99
11936;BME280;6027;48.576;9.180;2023-04-15T10:32:40;95954.53;;;11.56;57.13
11936;BME280;6027;48.576;9.180;2023-04-15T10:35:06;95957.19;;;11.56;57.92
11936;BME280;6027;48.576;9.180;2023-04-15T10:37:35;95954.16;;;11.52;57.71
11936;BME280;6027;48.576;9.180;2023-04-15T10:42:54;95952.91;;;11.55;58.29
11936;BME280;6027;48.576;9.180;2023-04-15T10:45:20;95961.91;;;11.47;58.18
11936;BME280;6027;48.576;9.180;2023-04-15T10:47:45;95957.63;;;11.53;57.13
11936;BME280;6027;48.576;9.180;2023-04-15T10:50:17;95966.16;;;11.55;56.63
11936;BME280;6027;48.576;9.180;2023-04-15T10:52:43;95962.28;;;11.57;56.44
11936;BME280;6027;48.576;9.180;2023-04-15T10:55:13;95966.75;;;11.57;53.52
11936;BME280;6027;48.576;9.180;2023-04-15T10:57:41;95964.28;;;11.68;53.24
11936;BME280;6027;48.576;9.180;2023-04-15T11:02:54;95962.63;;;11.81;53.70
11936;BME280;6027;48.576;9.180;2023-04-15T11:05:51;95976.28;;;11.77;53.71
11936;BME280;6027;48.576;9.180;2023-04-15T11:08:18;95969.47;;;11.95;54.13
11936;BME280;6027;48.576;9.180;2023-04-15T11:15:38;95964.00;;;12.21;55.93
11936;BME280;6027;48.576;9.180;2023-04-15T11:20:34;95974.44;;;12.16;48.70
11936;BME280;6027;48.576;9.180;2023-04-15T11:23:00;95969.69;;;12.25;47.18
11936;BME280;6027;48.576;9.180;2023-04-15T11:25:27;95975.41;;;12.28;45.54
11936;BME280;6027;48.576;9.180;2023-04-15T11:27:54;95970.41;;;12.38;48.37
11936;BME280;6027;48.576;9.180;2023-04-15T11:30:20;95966.41;;;12.54;48.91
11936;BME280;6027;48.576;9.180;2023-04-15T11:32:51;95973.03;;;12.70;48.33
11936;BME280;6027;48.576;9.180;2023-04-15T11:35:17;95960.16;;;12.92;50.70
11936;BME280;6027;48.576;9.180;2023-04-15T11:37:43;95968.06;;;13.23;44.83
11936;BME280;6027;48.576;9.180;2023-04-15T11:40:10;95971.44;;;13.30;44.79
11936;BME280;6027;48.576;9.180;2023-04-15T11:42:36;95969.59;;;13.31;44.79
11936;BME280;6027;48.576;9.180;2023-04-15T11:45:12;95978.75;;;13.17;44.86
11936;BME280;6027;48.576;9.180;2023-04-15T11:47:39;95974.03;;;13.19;46.92
11936;BME280;6027;48.576;9.180;2023-04-15T11:50:21;95982.78;;;13.01;47.79
11936;BME280;6027;48.576;9.180;2023-04-15T11:53:01;95988.22;;;12.88;48.39
11936;BME280;6027;48.576;9.180;2023-04-15T11:55:28;95977.91;;;12.73;49.67
11936;BME280;6027;48.576;9.180;2023-04-15T11:58:13;96001.38;;;12.76;50.57
11936;BME280;6027;48.576;9.180;2023-04-15T12:00:41;95988.69;;;12.78;49.24
11936;BME280;6027;48.576;9.180;2023-04-15T12:06:08;95997.69;;;12.77;52.49
11936;BME280;6027;48.576;9.180;2023-04-15T12:08:57;96004.28;;;12.93;50.51
11936;BME280;6027;48.576;9.180;2023-04-15T12:16:27;96003.94;;;12.89;48.76
11936;BME280;6027;48.576;9.180;2023-04-15T12:18:55;96018.50;;;12.80;50.31
11936;BME280;6027;48.576;9.180;2023-04-15T12:21:22;96014.19;;;12.86;49.54
11936;BME280;6027;48.576;9.180;2023-04-15T12:23:52;96019.81;;;12.96;49.53
11936;BME280;6027;48.576;9.180;2023-04-15T12:26:28;96018.69;;;12.85;48.69
11936;BME280;6027;48.576;9.180;2023-04-15T12:29:02;96017.78;;;12.91;49.52
11936;BME280;6027;48.576;9.180;2023-04-15T12:31:28;96015.72;;;12.93;50.28
11936;BME280;6027;48.576;9.180;2023-04-15T12:33:57;96018.84;;;13.08;50.31
11936;BME280;6027;48.576;9.180;2023-04-15T12:41:19;96024.41;;;13.32;46.20
11936;BME280;6027;48.576;9.180;2023-04-15T12:43:45;96029.59;;;13.45;46.83
11936;BME280;6027;48.576;9.180;2023-04-15T12:46:12;96045.56;;;13.45;43.50
11936;BME280;6027;48.576;9.180;2023-04-15T12:48:37;96034.69;;;13.46;42.57
11936;BME280;6027;48.576;9.180;2023-04-15T12:51:03;96043.03;;;13.50;41.62
11936;BME280;6027;48.576;9.180;2023-04-15T12:53:28;96038.91;;;13.54;43.24
11936;BME280;6027;48.576;9.180;2023-04-15T12:55:54;96048.78;;;13.47;43.93
11936;BME280;6027;48.576;9.180;2023-04-15T12:58:20;96050.72;;;13.40;43.19
11936;BME280;6027;48.576;9.180;2023-04-15T13:00:46;96055.66;;;13.36;42.37
11936;BME280;6027;48.576;9.180;2023-04-15T13:03:11;96056.91;;;13.34;43.29
11936;BME280;6027;48.576;9.180;2023-04-15T13:05:37;96054.41;;;13.39;42.74
11936;BME280;6027;48.576;9.180;2023-04-15T13:08:04;96066.81;;;13.45;43.04
11936;BME280;6027;48.576;9.180;2023-04-15T13:10:30;96074.66;;;13.08;49.50
11936;BME280;6027;48.576;9.180;2023-04-15T13:12:56;96076.63;;;12.95;52.74
11936;BME280;6027;48.576;9.180;2023-04-15T13:15:21;96093.66;;;12.56;55.35
11936;BME280;6027;48.576;9.180;2023-04-15T13:17:48;96100.16;;;12.22;57.13
11936;BME280;6027;48.576;9.180;2023-04-15T13:20:13;96101.25;;;12.07;57.63
11936;BME280;6027;48.576;9.180;2023-04-15T13:22:39;96103.34;;;11.92;59.23
11936;BME280;6027;48.576;9.180;2023-04-15T13:25:06;96110.09;;;11.82;60.35
11936;BME280;6027;48.576;9.180;2023-04-15T13:27:32;96122.34;;;11.89;60.71
11936;BME280;6027;48.576;9.180;2023-04-15T13:29:58;96126.00;;;11.88;61.22
11936;BME280;6027;48.576;9.180;2023-04-15T13:32:24;96129.88;;;11.92;60.83
11936;BME280;6027;48.576;9.180;2023-04-15T13:34:49;96131.28;;;11.95;61.41
11936;BME280;6027;48.576;9.180;2023-04-15T13:37:15;96129.47;;;11.89;59.09
11936;BME280;6027;48.576;9.180;2023-04-15T13:39:40;96132.28;;;11.94;58.76
11936;BME280;6027;48.576;9.180;2023-04-15T13:42:06;96130.09;;;11.91;59.37
11936;BME280;6027;48.576;9.180;2023-04-15T13:44:31;96132.13;;;11.89;59.61
11936;BME280;6027;48.576;9.180;2023-04-15T13:46:57;96138.59;;;12.06;59.44
11936;BME280;6027;48.576;9.180;2023-04-15T13:49:22;96144.72;;;12.06;57.67